Back to Top

My Weather Underground Personal Weather Station Historical Data with Graphs...

Delerius Weather Station Historical Data
Daily Summary for November 26, 2020 Units:  English    Metric   Both
Daily Weekly Monthly Yearly
  High: Low: Average:
Temperature: 44.4 °F 33.6 °F 39 °F
Dew Point: 43.5 °F 32.5 °F 38.1 °F
Humidity: 98% 94% 97%
Wind Speed: 6mph 0mph 1.1mph
Wind Gust: 7mph - -
Wind- - SSW
Pressure: 30.2 in 30.1 in -
Precipitation: 0.01 in    
 
 
Tabular Data for November 26, 2020
Time Temperature Dew Point Pressure Wind Wind Speed Wind Gust Humidity Rainfall Rate (Hourly) solar
00:04 37.2 °F 35.8 °F 30.1 in ESE 1 mph 2 mph 94.5% 0 in 0 W/m2
00:09 36.9 °F 35.4 °F 30.1 in ESE 0.6 mph 2 mph 94% 0 in 0 W/m2
00:14 36.9 °F 35.4 °F 30.1 in Calm   2 mph 94.2% 0 in 0 W/m2
00:19 37 °F 35.8 °F 30.1 in ESE 0.2 mph 2 mph 95% 0 in 0 W/m2
00:24 37 °F 35.8 °F 30.1 in SSE 0.9 mph 2 mph 95% 0 in 0 W/m2
00:29 37 °F 35.8 °F 30.1 in SSE 1.4 mph 4 mph 95% 0 in 0 W/m2
00:34 36.9 °F 35.4 °F 30.1 in SSE 1.8 mph 5 mph 94.5% 0 in 0 W/m2
00:39 36.3 °F 34.9 °F 30.1 in SE 0.6 mph 3 mph 94% 0 in 0 W/m2
00:44 36.1 °F 34.7 °F 30.1 in SE 0.8 mph 3 mph 94.4% 0 in 0 W/m2
00:49 36.1 °F 34.9 °F 30.1 in SE 1.4 mph 5 mph 95% 0 in 0 W/m2
00:54 36.1 °F 34.9 °F 30.1 in SE 1.2 mph 5 mph 95% 0 in 0 W/m2
00:59 36.1 °F 34.9 °F 30.1 in SE 1.6 mph 5 mph 95% 0 in 0 W/m2
01:04 36.3 °F 34.9 °F 30.1 in SE 0.9 mph 4 mph 95% 0 in 0 W/m2
01:09 36.1 °F 34.9 °F 30.1 in SE 0.1 mph 2 mph 95% 0 in 0 W/m2
01:14 36.3 °F 35.1 °F 30.1 in SE 0.5 mph 2 mph 95% 0 in 0 W/m2
01:19 36.5 °F 35.2 °F 30.1 in Calm   1 mph 95% 0 in 0 W/m2
01:24 36.3 °F 35.1 °F 30.1 in Calm     95% 0 in 0 W/m2
01:29 36.1 °F 34.9 °F 30.1 in SE 1.8 mph 4 mph 95% 0 in 0 W/m2
01:34 36.1 °F 34.9 °F 30.1 in SE 2.4 mph 4 mph 95% 0 in 0 W/m2
01:39 36.5 °F 35.2 °F 30.1 in South 3.2 mph 5 mph 95.5% 0 in 0 W/m2
01:44 37 °F 36 °F 30.1 in SSW 1.6 mph 5 mph 96% 0 in 0 W/m2
01:49 37 °F 36 °F 30.1 in Calm   2 mph 96% 0 in 0 W/m2
01:54 37 °F 36 °F 30.1 in SSW 3.2 mph 6 mph 96% 0 in 0 W/m2
01:59 36.9 °F 35.8 °F 30.1 in SSW 1.2 mph 5 mph 96% 0 in 0 W/m2
02:04 36.3 °F 34.9 °F 30.1 in South 1.2 mph 2 mph 95% 0 in 0 W/m2
02:09 36 °F 34.7 °F 30.1 in SE 1.5 mph 5 mph 95% 0 in 0 W/m2
02:14 36.1 °F 35.1 °F 30.1 in SSE 1.6 mph 4 mph 95.7% 0 in 0 W/m2
02:19 36.5 °F 35.4 °F 30.1 in SSE 0.4 mph 2 mph 96% 0 in 0 W/m2
02:24 36.3 °F 35.2 °F 30.1 in SSE 1.7 mph 5 mph 96% 0 in 0 W/m2
02:29 35.8 °F 34.5 °F 30.1 in SSE 3.3 mph 5 mph 95.2% 0.01 in 0 W/m2
02:34 35.6 °F 34.5 °F 30.1 in SSE 0.8 mph 4 mph 95.6% 0.01 in 0 W/m2
02:39 35.4 °F 34.5 °F 30.1 in Calm   1 mph 96% 0.01 in 0 W/m2
02:44 35.4 °F 34.3 °F 30.1 in SSE 0.1 mph 2 mph 96% 0.01 in 0 W/m2
02:49 35.2 °F 34.2 °F 30.1 in SSE 0.7 mph 2 mph 96% 0.01 in 0 W/m2
02:54 35.2 °F 34.2 °F 30.1 in SSE 0.9 mph 2 mph 96% 0.01 in 0 W/m2
02:59 35.4 °F 34.3 °F 30.1 in SSE 0.8 mph 2 mph 96% 0.01 in 0 W/m2
03:04 35.4 °F 34.3 °F 30.1 in SSE 0.3 mph 2 mph 96% 0.01 in 0 W/m2
03:09 35.4 °F 34.3 °F 30.1 in Calm   1 mph 96% 0.01 in 0 W/m2
03:14 35.2 °F 34.2 °F 30.1 in Calm   1 mph 96% 0.01 in 0 W/m2
03:19 35.1 °F 34 °F 30.1 in SSE 1.4 mph 4 mph 96% 0.01 in 0 W/m2
03:24 34.9 °F 33.8 °F 30.1 in South 3.4 mph 5 mph 96% 0.01 in 0 W/m2
03:29 35.4 °F 34.3 °F 30.1 in SW 3.9 mph 5 mph 96% 0.01 in 0 W/m2
03:34 35.8 °F 34.9 °F 30.1 in SW 1.5 mph 5 mph 96% 0 in 0 W/m2
03:39 35.4 °F 34.3 °F 30.1 in Calm   2 mph 96% 0 in 0 W/m2
03:44 35.1 °F 34 °F 30.1 in SSW 0.3 mph 4 mph 96% 0 in 0 W/m2
03:49 35.1 °F 34 °F 30.1 in SSW 3.5 mph 6 mph 96% 0 in 0 W/m2
03:54 35.8 °F 34.7 °F 30.1 in SW 5 mph 7 mph 96.1% 0 in 0 W/m2
03:59 36.3 °F 35.4 °F 30.1 in SW 4.9 mph 7 mph 96.6% 0 in 0 W/m2
04:04 36.7 °F 35.8 °F 30.1 in SW 6 mph 7 mph 96.8% 0 in 0 W/m2
04:09 36.7 °F 36 °F 30.1 in SW 3.9 mph 7 mph 97% 0 in 0 W/m2
04:14 36.3 °F 35.2 °F 30.1 in SW 0.2 mph 4 mph 96.1% 0 in 0 W/m2
04:19 35.2 °F 34.2 °F 30.1 in SE 0.4 mph 2 mph 95.5% 0 in 0 W/m2
04:24 35.1 °F 34 °F 30.1 in SSE 0.6 mph 4 mph 96% 0 in 0 W/m2
04:29 35.6 °F 34.5 °F 30.1 in SSW 3.4 mph 5 mph 96% 0 in 0 W/m2
04:34 36.1 °F 35.4 °F 30.1 in SW 3.3 mph 5 mph 96.9% 0 in 0 W/m2
04:39 36.1 °F 35.4 °F 30.1 in SW 0.3 mph 4 mph 97% 0 in 0 W/m2
04:44 35.2 °F 34.2 °F 30.1 in Calm   2 mph 96% 0 in 0 W/m2
04:49 34.5 °F 33.4 °F 30.1 in Calm   2 mph 96% 0 in 0 W/m2
04:54 34.9 °F 34 °F 30.1 in SW 1 mph 3 mph 96.4% 0 in 0 W/m2
04:59 35.1 °F 34.2 °F 30.1 in SSE 1.2 mph 5 mph 96.9% 0 in 0 W/m2
05:04 34.3 °F 33.3 °F 30.1 in SE 3.9 mph 5 mph 96% 0 in 0 W/m2
05:09 34 °F 33.1 °F 30.1 in SE 1.6 mph 5 mph 96% 0 in 0 W/m2
05:14 34 °F 32.9 °F 30.1 in Calm   1 mph 96% 0 in 0 W/m2
05:19 33.8 °F 32.7 °F 30.1 in Calm   1 mph 96% 0 in 0 W/m2
05:24 33.8 °F 32.7 °F 30.1 in SSE 0.4 mph 4 mph 96% 0 in 0 W/m2
05:29 33.8 °F 32.9 °F 30.1 in SSW 3.1 mph 5 mph 96% 0 in 0 W/m2
05:34 34.3 °F 33.4 °F 30.1 in SSW 1.1 mph 4 mph 96.7% 0 in 0 W/m2
05:39 34.5 °F 33.8 °F 30.1 in SSW 0.2 mph 2 mph 97% 0 in 0 W/m2
05:44 34.7 °F 33.8 °F 30.1 in SSW 0.7 mph 2 mph 97% 0 in 0 W/m2
05:49 34.7 °F 33.8 °F 30.1 in SSW 2 mph 5 mph 97% 0 in 0 W/m2
05:54 34.9 °F 34 °F 30.1 in SSW 3.9 mph 5 mph 97% 0 in 0 W/m2
05:59 35.2 °F 34.5 °F 30.1 in SW 4.3 mph 5 mph 97% 0 in 0 W/m2
06:04 36 °F 35.1 °F 30.1 in SW 3.1 mph 5 mph 97% 0 in 0 W/m2
06:09 36.1 °F 35.4 °F 30.1 in SW 2.8 mph 5 mph 97% 0 in 0 W/m2
06:14 36 °F 35.2 °F 30.1 in SW 0.6 mph 4 mph 97% 0 in 0 W/m2
06:19 35.4 °F 34.7 °F 30.1 in Calm     96.6% 0 in 0 W/m2
06:24 35.2 °F 34.2 °F 30.1 in SW 1.1 mph 3 mph 96% 0 in 0 W/m2
06:29 35.2 °F 34.2 °F 30.1 in SW 2 mph 3 mph 96.1% 0 in 0 W/m2
06:34 35.8 °F 34.9 °F 30.2 in SW 2.5 mph 4 mph 97% 0 in 0 W/m2
06:39 36.1 °F 35.4 °F 30.1 in SW 2.9 mph 4 mph 97% 0 in 0 W/m2
06:44 36.1 °F 35.2 °F 30.1 in SW 1.5 mph 4 mph 97% 0 in 0 W/m2
06:49 35.1 °F 34 °F 30.2 in Calm   2 mph 96.4% 0 in 0 W/m2
06:54 34.2 °F 33.1 °F 30.2 in Calm   1 mph 96% 0 in 0 W/m2
06:59 34.2 °F 33.1 °F 30.2 in SW 0.4 mph 2 mph 96% 0 in 0 W/m2
07:04 33.8 °F 32.7 °F 30.2 in SW 0.2 mph 2 mph 96% 0 in 0 W/m2
07:09 33.6 °F 32.5 °F 30.2 in SW 0.2 mph 2 mph 96% 0 in 0 W/m2
07:14 33.8 °F 32.9 °F 30.2 in SW 0.6 mph 2 mph 96.7% 0 in 0 W/m2
07:19 34.2 °F 33.4 °F 30.2 in SW 0.5 mph 2 mph 97% 0 in 0 W/m2
07:24 34.5 °F 33.8 °F 30.2 in SW 0.2 mph 2 mph 97% 0 in 0 W/m2
07:29 34.3 °F 33.6 °F 30.2 in SW 0.6 mph 2 mph 97% 0 in 0 W/m2
07:34 34.3 °F 33.6 °F 30.2 in SW 0.4 mph 3 mph 97% 0 in 0 W/m2
07:39 34.5 °F 33.8 °F 30.2 in SW 1.1 mph 3 mph 97% 0 in 0 W/m2
07:44 34.9 °F 34 °F 30.2 in SW 0.4 mph 5 mph 97% 0 in 5 W/m2
07:49 35.1 °F 34.2 °F 30.2 in SSW 4.2 mph 5 mph 97% 0 in 7 W/m2
07:54 35.2 °F 34.5 °F 30.2 in SSW 1.1 mph 5 mph 97% 0 in 11 W/m2
07:59 35.1 °F 34.3 °F 30.2 in SSW 1.4 mph 3 mph 97% 0 in 14 W/m2
08:04 35.1 °F 34.3 °F 30.2 in SSW 0.6 mph 4 mph 97% 0 in 18 W/m2
08:09 35.2 °F 34.5 °F 30.2 in SSW 0.9 mph 4 mph 97% 0 in 25 W/m2
08:14 35.2 °F 34.5 °F 30.2 in Calm   1 mph 97% 0 in 32 W/m2
08:19 35.1 °F 34.3 °F 30.2 in Calm   1 mph 97% 0 in 37 W/m2
08:24 35.1 °F 34.3 °F 30.2 in SSW 0.7 mph 3 mph 97% 0 in 49 W/m2
08:29 35.1 °F 34.3 °F 30.2 in SSW 0.3 mph 3 mph 97% 0 in 56 W/m2
08:34 35.1 °F 34.3 °F 30.2 in SE 1.2 mph 4 mph 97% 0 in 65 W/m2
08:39 34.9 °F 34.2 °F 30.2 in SE 1.2 mph 4 mph 97% 0 in 77 W/m2
08:44 34.9 °F 34.2 °F 30.2 in SE 1.4 mph 4 mph 97% 0 in 84 W/m2
08:49 35.1 °F 34.2 °F 30.2 in SE 1.6 mph 5 mph 97% 0 in 90 W/m2
08:54 34.9 °F 34.2 °F 30.2 in SE 3 mph 6 mph 97% 0 in 95 W/m2
08:59 34.7 °F 34 °F 30.2 in SE 2.1 mph 5 mph 97% 0 in 105 W/m2
09:04 34.7 °F 34 °F 30.2 in SE 2.3 mph 7 mph 97% 0 in 77 W/m2
09:09 34.9 °F 34 °F 30.2 in SSE 1.1 mph 5 mph 97% 0 in 49 W/m2
09:14 35.1 °F 34.3 °F 30.2 in SSE 1.4 mph 5 mph 97% 0 in 51 W/m2
09:19 35.2 °F 34.5 °F 30.2 in SSE 0.1 mph 2 mph 97% 0 in 53 W/m2
09:24 35.2 °F 34.5 °F 30.2 in Calm   1 mph 97% 0 in 53 W/m2
09:29 35.4 °F 34.7 °F 30.2 in Calm   1 mph 97% 0 in 51 W/m2
09:34 35.8 °F 35.1 °F 30.2 in SSE 0.8 mph 5 mph 97% 0 in 51 W/m2
09:39 36.1 °F 35.4 °F 30.2 in SSE 1.9 mph 5 mph 97% 0 in 49 W/m2
09:44 36.3 °F 35.6 °F 30.2 in SSE 0.5 mph 4 mph 97% 0 in 54 W/m2
09:49 36.5 °F 35.8 °F 30.2 in Calm   2 mph 97% 0 in 60 W/m2
09:54 36.7 °F 36 °F 30.2 in SSE 0.1 mph 2 mph 97% 0 in 63 W/m2
09:59 36.7 °F 35.8 °F 30.2 in SSE 0.2 mph 4 mph 97% 0 in 63 W/m2
10:04 36.1 °F 35.4 °F 30.2 in SSE 1.2 mph 4 mph 97% 0 in 65 W/m2
10:09 36 °F 35.2 °F 30.2 in SSE 0.8 mph 4 mph 97% 0 in 72 W/m2
10:14 35.8 °F 35.1 °F 30.2 in SSE 1.5 mph 4 mph 97% 0 in 79 W/m2
10:19 35.8 °F 35.1 °F 30.2 in SSE 0.4 mph 3 mph 97% 0 in 83 W/m2
10:24 36 °F 35.2 °F 30.2 in SSE 0.9 mph 3 mph 97% 0 in 90 W/m2
10:29 36.1 °F 35.4 °F 30.2 in SE 0.5 mph 5 mph 97% 0 in 91 W/m2
10:34 36.3 °F 35.6 °F 30.2 in SE 2.1 mph 5 mph 97% 0 in 97 W/m2
10:39 36.7 °F 35.8 °F 30.2 in ESE 0.6 mph 4 mph 97% 0 in 98 W/m2
10:44 36.9 °F 36 °F 30.2 in ESE 0.9 mph 4 mph 97% 0 in 98 W/m2
10:49 36.9 °F 36.1 °F 30.2 in SSE 1.4 mph 5 mph 97% 0 in 98 W/m2
10:54 37 °F 36.3 °F 30.2 in SSE 0.9 mph 5 mph 97% 0 in 102 W/m2
10:59 37.6 °F 36.7 °F 30.2 in SSE 0.6 mph 2 mph 97.2% 0 in 100 W/m2
11:04 37.8 °F 37.2 °F 30.2 in Calm   2 mph 98% 0 in 93 W/m2
11:09 37.9 °F 37.4 °F 30.2 in Calm   1 mph 97.8% 0 in 91 W/m2
11:14 38.3 °F 37.8 °F 30.2 in Calm   1 mph 98% 0 in 95 W/m2
11:19 38.7 °F 38.1 °F 30.2 in Calm   1 mph 98% 0 in 104 W/m2
11:24 38.8 °F 38.3 °F 30.2 in Calm   1 mph 98% 0 in 91 W/m2
11:29 39.4 °F 38.8 °F 30.2 in SSE 0.2 mph 2 mph 98% 0 in 104 W/m2
11:34 39.7 °F 39.2 °F 30.2 in SSE 0.2 mph 2 mph 98% 0 in 111 W/m2
11:39 40.1 °F 39.6 °F 30.2 in Calm   2 mph 98% 0 in 109 W/m2
11:44 40.6 °F 40.1 °F 30.2 in SW 0.4 mph 3 mph 98% 0 in 113 W/m2
11:49 41 °F 40.6 °F 30.2 in Calm   2 mph 98% 0 in 123 W/m2
11:54 41.2 °F 40.6 °F 30.2 in Calm     98% 0 in 125 W/m2
11:59 41.2 °F 40.6 °F 30.2 in Calm     98% 0 in 114 W/m2
12:04 41.4 °F 40.8 °F 30.2 in Calm     98% 0 in 105 W/m2
12:09 41.5 °F 41 °F 30.2 in SW 0.2 mph 5 mph 98% 0 in 105 W/m2
12:14 42.1 °F 41.5 °F 30.2 in SW 3.3 mph 5 mph 98% 0 in 98 W/m2
12:19 42.4 °F 41.9 °F 30.2 in SW 2.1 mph 5 mph 98% 0 in 107 W/m2
12:24 42.6 °F 42.1 °F 30.2 in Calm   2 mph 98% 0 in 93 W/m2
12:29 42.4 °F 42.1 °F 30.2 in Calm   1 mph 98% 0 in 81 W/m2
12:34 42.3 °F 41.7 °F 30.2 in Calm     98% 0 in 88 W/m2
12:39 42.3 °F 41.7 °F 30.2 in Calm     98% 0 in 98 W/m2
12:44 42.3 °F 41.7 °F 30.2 in Calm   1 mph 97.8% 0 in 81 W/m2
12:49 42.4 °F 42.1 °F 30.2 in SW 0.6 mph 2 mph 98% 0 in 88 W/m2
12:54 42.8 °F 42.3 °F 30.2 in SW 0.1 mph 3 mph 98% 0 in 88 W/m2
12:59 43.2 °F 42.6 °F 30.2 in WSW 2.5 mph 5 mph 98% 0 in 79 W/m2
13:04 43.3 °F 42.8 °F 30.2 in WSW 2.5 mph 5 mph 98% 0 in 77 W/m2
13:09 43.3 °F 42.8 °F 30.2 in WSW 1.9 mph 5 mph 98% 0 in 74 W/m2
13:14 43.3 °F 42.8 °F 30.2 in WSW 2.2 mph 5 mph 98% 0 in 76 W/m2
13:19 43.5 °F 43 °F 30.2 in WSW 3.9 mph 5 mph 98% 0 in 77 W/m2
13:24 43.5 °F 43.2 °F 30.2 in WSW 2.3 mph 5 mph 98% 0 in 77 W/m2
13:29 43.7 °F 43.2 °F 30.2 in West 4.2 mph 7 mph 97.7% 0 in 76 W/m2
13:34 43.9 °F 43.2 °F 30.2 in West 2.9 mph 7 mph 97% 0 in 70 W/m2
13:39 43.9 °F 43.2 °F 30.2 in West 2.7 mph 5 mph 97.2% 0 in 72 W/m2
13:44 44.1 °F 43.3 °F 30.2 in West 1.2 mph 4 mph 97.5% 0 in 70 W/m2
13:49 44.1 °F 43.3 °F 30.2 in West 2.7 mph 5 mph 97% 0 in 63 W/m2
13:54 44.1 °F 43.3 °F 30.2 in West 2 mph 5 mph 97% 0 in 56 W/m2
13:59 44.1 °F 43.3 °F 30.2 in West 1.7 mph 4 mph 97% 0 in 54 W/m2
14:04 44.1 °F 43.3 °F 30.2 in West 0.8 mph 4 mph 97% 0 in 51 W/m2
14:09 44.2 °F 43.3 °F 30.2 in Calm     97% 0 in 51 W/m2
14:14 44.2 °F 43.3 °F 30.2 in Calm     97% 0 in 51 W/m2
14:19 44.4 °F 43.5 °F 30.2 in Calm     97% 0 in 51 W/m2
14:24 44.4 °F 43.5 °F 30.2 in West 0.2 mph 4 mph 97% 0 in 46 W/m2
14:29 44.4 °F 43.5 °F 30.2 in West 0.4 mph 4 mph 97% 0 in 42 W/m2
14:34 44.4 °F 43.5 °F 30.2 in Calm   1 mph 97% 0 in 37 W/m2
14:39 44.4 °F 43.5 °F 30.2 in Calm     96.9% 0 in 35 W/m2
14:44 44.4 °F 43.3 °F 30.2 in Calm     96% 0 in 32 W/m2
14:49 44.4 °F 43.3 °F 30.2 in Calm     96% 0 in 30 W/m2
14:54 44.4 °F 43.3 °F 30.2 in Calm     96% 0 in 26 W/m2
14:59 44.4 °F 43.3 °F 30.2 in Calm     96% 0 in 23 W/m2
15:04 44.4 °F 43.3 °F 30.2 in Calm     96% 0 in 19 W/m2
15:09 44.2 °F 43.3 °F 30.2 in Calm     96% 0 in 16 W/m2
15:14 44.2 °F 43.2 °F 30.2 in Calm     96% 0 in 12 W/m2
15:19 44.2 °F 43.2 °F 30.2 in Calm     96% 0 in 12 W/m2
15:24 44.2 °F 43.2 °F 30.2 in Calm     96% 0 in 11 W/m2
15:29 44.2 °F 43.2 °F 30.2 in Calm     96% 0 in 9 W/m2
15:34 44.1 °F 43 °F 30.2 in Calm     96% 0 in 7 W/m2
15:39 43.9 °F 42.8 °F 30.2 in South 0.3 mph 5 mph 96% 0 in 7 W/m2
15:44 43.5 °F 42.4 °F 30.2 in SSE 1.4 mph 5 mph 96% 0 in 5 W/m2
15:49 43.3 °F 42.3 °F 30.2 in SE 0.8 mph 5 mph 96% 0 in 5 W/m2
15:54 43.3 °F 42.3 °F 30.2 in SE 0.1 mph 6 mph 96% 0 in 0 W/m2
15:59 43.2 °F 42.1 °F 30.2 in NW 3 mph 6 mph 96% 0 in 0 W/m2
16:04 43.2 °F 42.1 °F 30.2 in NW 1.2 mph 4 mph 96% 0 in 0 W/m2
16:09 43.2 °F 42.1 °F 30.2 in NW 0.9 mph 4 mph 96% 0 in 0 W/m2
16:14 43.2 °F 42.1 °F 30.2 in Calm     96% 0 in 0 W/m2
16:19 43.2 °F 42.1 °F 30.2 in Calm     96% 0 in 0 W/m2
16:24 43.2 °F 42.1 °F 30.2 in Calm     96% 0 in 0 W/m2
16:29 43.2 °F 42.1 °F 30.2 in Calm     96% 0 in 0 W/m2
16:34 43.2 °F 42.1 °F 30.2 in Calm     96% 0 in 0 W/m2
16:39 43 °F 41.9 °F 30.2 in Calm   1 mph 96% 0 in 0 W/m2
16:44 43 °F 41.7 °F 30.2 in Calm   1 mph 96% 0 in 0 W/m2
16:49 42.6 °F 41.5 °F 30.2 in Calm   1 mph 96% 0 in 0 W/m2
16:54 42.4 °F 41.5 °F 30.2 in Calm     96% 0 in 0 W/m2
16:59 42.4 °F 41.4 °F 30.2 in Calm     96% 0 in 0 W/m2
17:04 42.4 °F 41.4 °F 30.2 in Calm     96% 0 in 0 W/m2
17:09 42.3 °F 41.2 °F 30.2 in Calm     96% 0 in 0 W/m2
17:14 42.3 °F 41.2 °F 30.2 in NE 1.9 mph 5 mph 96% 0 in 0 W/m2
17:19 42.1 °F 41 °F 30.2 in NE 4 mph 5 mph 96% 0 in 0 W/m2
17:24 42.3 °F 41.2 °F 30.2 in NE 2.9 mph 4 mph 96% 0 in 0 W/m2
17:29 42.3 °F 41.4 °F 30.2 in NE 1.8 mph 4 mph 96.3% 0 in 0 W/m2
17:34 42.4 °F 41.5 °F 30.2 in NE 0.7 mph 3 mph 97% 0 in 0 W/m2
17:39 42.3 °F 41.4 °F 30.2 in NE 0.1 mph 2 mph 96.6% 0 in 0 W/m2
17:44 42.4 °F 41.5 °F 30.2 in NNW 1.7 mph 5 mph 96.7% 0 in 0 W/m2
17:49 42.4 °F 41.7 °F 30.2 in WSW 2.4 mph 5 mph 97% 0 in 0 W/m2
17:54 42.6 °F 41.7 °F 30.2 in WSW 3 mph 5 mph 97% 0 in 0 W/m2
17:59 42.6 °F 41.7 °F 30.2 in WSW 3.5 mph 5 mph 97% 0 in 0 W/m2
18:04 42.4 °F 41.5 °F 30.2 in WSW 4 mph 5 mph 97% 0 in 0 W/m2
18:09 42.4 °F 41.5 °F 30.2 in WSW 4 mph 5 mph 97% 0 in 0 W/m2
18:14 42.4 °F 41.5 °F 30.2 in WSW 4.5 mph 5 mph 97% 0 in 0 W/m2
18:19 42.4 °F 41.5 °F 30.2 in WSW 3.5 mph 5 mph 97% 0 in 0 W/m2
18:24 42.3 °F 41.5 °F 30.2 in WSW 1.2 mph 4 mph 97% 0 in 0 W/m2
18:29 42.3 °F 41.5 °F 30.2 in Calm     97% 0 in 0 W/m2
18:34 42.3 °F 41.5 °F 30.2 in Calm     97% 0 in 0 W/m2
18:39 42.1 °F 41.4 °F 30.2 in Calm     97% 0 in 0 W/m2
18:44 42.1 °F 41.4 °F 30.2 in Calm     97% 0 in 0 W/m2
18:49 42.1 °F 41.2 °F 30.2 in Calm     97% 0 in 0 W/m2
18:54 41.7 °F 41 °F 30.2 in Calm     97% 0 in 0 W/m2
18:59 41.7 °F 40.8 °F 30.2 in Calm     97% 0 in 0 W/m2
19:04 41.7 °F 40.8 °F 30.2 in Calm     97% 0 in 0 W/m2
19:09 41.7 °F 40.8 °F 30.2 in Calm     97% 0 in 0 W/m2
19:14 41.7 °F 40.8 °F 30.2 in Calm     97% 0 in 0 W/m2
19:19 41.5 °F 40.8 °F 30.2 in Calm     97% 0 in 0 W/m2
19:24 41.5 °F 40.8 °F 30.2 in Calm     97% 0 in 0 W/m2
19:29 41.5 °F 40.8 °F 30.2 in Calm     97% 0 in 0 W/m2
19:34 41.4 °F 40.6 °F 30.2 in Calm   1 mph 97% 0 in 0 W/m2
19:39 41.4 °F 40.5 °F 30.2 in Calm   1 mph 97% 0 in 0 W/m2
19:44 41.2 °F 40.3 °F 30.2 in Calm   1 mph 97% 0 in 0 W/m2
19:49 40.8 °F 40.1 °F 30.2 in Calm   2 mph 97% 0 in 0 W/m2
19:54 40.6 °F 39.9 °F 30.2 in Calm     97% 0 in 0 W/m2
19:59 40.6 °F 39.9 °F 30.2 in Calm     97% 0 in 0 W/m2
20:04 40.5 °F 39.6 °F 30.2 in Calm     97% 0 in 0 W/m2
20:09 40.3 °F 39.6 °F 30.2 in Calm     97% 0 in 0 W/m2
20:14 40.3 °F 39.6 °F 30.2 in Calm     97% 0 in 0 W/m2
20:19 40.5 °F 39.7 °F 30.2 in SSE 0.2 mph 5 mph 97% 0 in 0 W/m2
20:24 40.5 °F 39.7 °F 30.2 in SSE 0.8 mph 5 mph 97% 0 in 0 W/m2
20:29 40.5 °F 39.7 °F 30.2 in Calm   1 mph 97% 0 in 0 W/m2
20:34 40.6 °F 39.9 °F 30.2 in Calm   1 mph 97% 0 in 0 W/m2
20:39 40.6 °F 39.9 °F 30.2 in Calm     97% 0 in 0 W/m2
20:44 40.8 °F 39.9 °F 30.2 in Calm   1 mph 97% 0 in 0 W/m2
20:49 41.2 °F 40.3 °F 30.2 in Calm   1 mph 97% 0 in 0 W/m2
20:54 41.4 °F 40.5 °F 30.2 in Calm   2 mph 97% 0 in 0 W/m2
20:59 41.4 °F 40.6 °F 30.2 in Calm   2 mph 97% 0 in 0 W/m2
21:04 41.4 °F 40.5 °F 30.2 in Calm     97% 0 in 0 W/m2
21:09 41 °F 40.3 °F 30.2 in Calm     97% 0 in 0 W/m2
21:14 41 °F 40.3 °F 30.2 in Calm     97% 0 in 0 W/m2
21:19 41 °F 40.3 °F 30.2 in Calm     97% 0 in 0 W/m2
21:24 41 °F 40.3 °F 30.2 in Calm     97% 0 in 0 W/m2
21:29 41 °F 40.1 °F 30.2 in Calm     97% 0 in 0 W/m2
21:34 40.8 °F 40.1 °F 30.2 in Calm     97% 0 in 0 W/m2
21:39 40.5 °F 39.7 °F 30.2 in Calm     97% 0 in 0 W/m2
21:44 40.1 °F 39.2 °F 30.2 in Calm     97% 0 in 0 W/m2
21:49 39.7 °F 38.8 °F 30.2 in SSW 0.7 mph 2 mph 97% 0 in 0 W/m2
21:54 39.2 °F 38.3 °F 30.2 in Calm   2 mph 97% 0 in 0 W/m2
21:59 38.7 °F 37.8 °F 30.2 in Calm   2 mph 96.3% 0 in 0 W/m2
22:04 38.7 °F 37.9 °F 30.2 in West 1.4 mph 2 mph 97% 0 in 0 W/m2
22:09 38.7 °F 37.9 °F 30.2 in West 1.4 mph 3 mph 97% 0 in 0 W/m2
22:14 38.7 °F 37.9 °F 30.2 in West 1.6 mph 4 mph 97% 0 in 0 W/m2
22:19 38.7 °F 37.9 °F 30.2 in West 0.4 mph 2 mph 97% 0 in 0 W/m2
22:24 38.8 °F 38.1 °F 30.2 in West 0.2 mph 4 mph 97% 0 in 0 W/m2
22:29 39 °F 38.1 °F 30.2 in WNW 2.8 mph 5 mph 97% 0 in 0 W/m2
22:34 39.6 °F 38.7 °F 30.2 in WNW 3 mph 5 mph 97% 0 in 0 W/m2
22:39 39.9 °F 39.2 °F 30.2 in NW 4 mph 5 mph 97.4% 0 in 0 W/m2
22:44 40.3 °F 39.7 °F 30.2 in NW 3 mph 5 mph 97.5% 0 in 0 W/m2
22:49 40.6 °F 40.1 °F 30.2 in NW 3.2 mph 5 mph 98% 0 in 0 W/m2
22:54 40.6 °F 40.1 °F 30.2 in NW 4.3 mph 5 mph 98% 0 in 0 W/m2
22:59 40.6 °F 40.1 °F 30.2 in WNW 4.5 mph 5 mph 98% 0 in 0 W/m2
23:04 40.6 °F 40.1 °F 30.2 in WNW 3.9 mph 6 mph 98% 0 in 0 W/m2
23:09 40.5 °F 39.7 °F 30.2 in WNW 5 mph 6 mph 97.3% 0 in 0 W/m2
23:14 40.5 °F 39.7 °F 30.2 in WNW 4.3 mph 6 mph 97.1% 0 in 0 W/m2
23:19 40.5 °F 39.7 °F 30.2 in WNW 3.4 mph 6 mph 97% 0 in 0 W/m2
23:24 40.5 °F 39.6 °F 30.2 in WNW 1.3 mph 6 mph 97% 0 in 0 W/m2
23:29 40.6 °F 40.1 °F 30.2 in NNW 2.7 mph 6 mph 97.9% 0 in 0 W/m2
23:34 40.6 °F 40.1 °F 30.2 in NW 2.9 mph 6 mph 98% 0 in 0 W/m2
23:39 40.8 °F 40.3 °F 30.2 in NW 3.7 mph 6 mph 98% 0 in 0 W/m2
23:44 40.8 °F 40.5 °F 30.2 in NW 3.9 mph 6 mph 98% 0 in 0 W/m2
23:49 41 °F 40.5 °F 30.2 in NW 2.5 mph 5 mph 98% 0 in 0 W/m2
23:54 41 °F 40.5 °F 30.2 in NW 1.4 mph 5 mph 98% 0 in 0 W/m2
23:59 40.8 °F 40.3 °F 30.2 in NW 0.4 mph 4 mph 98% 0 in 0 W/m2
North Lincolnshire Weather
Compliments of Weather Underground - 2 mb

Data updates at regular intervals.